Time;durP1;ratioP1;P1;durP2;ratioP2;P2;SDS_P1;SDS_P2;PMS_P1;PMS_P2;Temp;Humidity;BMP_temperature;BMP_pressure;BME280_temperature;BME280_humidity;BME280_pressure;Samples;Min_cycle;Max_cycle;Signal;HPM_P1;HPM_P2
2022/10/05 00:00:46;;;;;;;2.51;2.28;;;;;;;10.77;68.02;101167.35;454777;116;922867;-77
2022/10/05 00:01:51;;;;;;;4.06;1.89;;;;;;;10.78;68.08;101169.04;454508;116;923022;-77
2022/10/05 00:02:55;;;;;;;1.76;1.66;;;;;;;10.78;67.98;101160.86;454588;116;922512;-77
2022/10/05 00:04:07;;;;;;;2.03;1.72;;;;;;;10.79;68.01;101162.55;454646;116;922749;-77
2022/10/05 00:05:16;;;;;;;2.32;1.82;;;;;;;10.80;68.00;101159.63;446972;116;923014;-76
2022/10/05 00:06:19;;;;;;;3.56;2.35;;;;;;;10.80;68.01;101162.35;450739;116;923321;-77
2022/10/05 00:07:23;;;;;;;2.45;2.07;;;;;;;10.80;68.08;101164.23;454719;116;922598;-78
2022/10/05 00:08:32;;;;;;;2.58;2.04;;;;;;;10.82;68.08;101167.58;458897;114;922442;-77
2022/10/05 00:09:35;;;;;;;1.85;1.75;;;;;;;10.83;67.99;101169.27;458782;115;922460;-77
2022/10/05 00:10:43;;;;;;;2.83;1.89;;;;;;;10.84;68.06;101168.23;458956;115;922904;-76
2022/10/05 00:11:44;;;;;;;1.84;1.74;;;;;;;10.85;67.94;101165.31;458586;113;922508;-77
2022/10/05 00:12:48;;;;;;;2.70;1.77;;;;;;;10.86;67.96;101163.43;458862;115;922547;-78
2022/10/05 00:13:51;;;;;;;2.34;2.00;;;;;;;10.87;67.85;101165.09;458906;115;922589;-77
2022/10/05 00:14:58;;;;;;;2.31;1.91;;;;;;;10.87;67.69;101168.66;458941;115;922513;-76
2022/10/05 00:16:16;;;;;;;4.73;2.12;;;;;;;10.85;67.66;101159.86;456752;115;930415;-77
2022/10/05 00:17:22;;;;;;;2.46;1.95;;;;;;;10.86;67.66;101166.16;455112;116;922538;-77
2022/10/05 00:18:26;;;;;;;5.84;1.93;;;;;;;10.85;67.77;101159.86;454679;116;922962;-76
2022/10/05 00:19:35;;;;;;;2.73;2.00;;;;;;;10.85;67.78;101157.12;455190;116;922502;-76
2022/10/05 00:20:40;;;;;;;1.97;1.86;;;;;;;10.86;67.83;101171.62;455063;116;930383;-75
2022/10/05 00:21:43;;;;;;;3.07;2.11;;;;;;;10.87;67.83;101159.63;455115;116;922636;-76
2022/10/05 00:22:46;;;;;;;2.22;1.96;;;;;;;10.86;67.79;101172.42;455259;116;922458;-76
2022/10/05 00:23:50;;;;;;;1.82;1.72;;;;;;;10.87;67.70;101167.81;455293;116;922985;-77
2022/10/05 00:24:56;;;;;;;2.06;1.93;;;;;;;10.86;67.65;101164.24;455237;116;922494;-77
2022/10/05 00:26:17;;;;;;;2.40;1.57;;;;;;;10.86;67.65;101158.78;455111;114;923069;-76
2022/10/05 00:27:24;;;;;;;2.77;1.92;;;;;;;10.87;67.69;101160.48;446451;118;923059;-76
2022/10/05 00:28:29;;;;;;;2.57;2.07;;;;;;;10.86;67.56;101156.06;447571;116;922943;-76
2022/10/05 00:29:33;;;;;;;2.10;1.77;;;;;;;10.85;67.43;101165.31;455073;116;922717;-76
2022/10/05 00:30:36;;;;;;;2.59;1.89;;;;;;;10.84;67.48;101157.33;453246;117;922465;-77
2022/10/05 00:31:40;;;;;;;2.39;1.89;;;;;;;10.85;67.35;101164.47;454912;116;923072;-78
2022/10/05 00:32:43;;;;;;;2.15;2.00;;;;;;;10.83;67.36;101163.81;456400;116;922475;-77
2022/10/05 00:33:47;;;;;;;1.86;1.76;;;;;;;10.83;67.34;101166.55;458091;114;922865;-76
2022/10/05 00:34:50;;;;;;;2.26;1.83;;;;;;;10.81;67.41;101166.73;464576;114;923491;-76
2022/10/05 00:35:54;;;;;;;2.06;1.64;;;;;;;10.82;67.59;101167.58;464523;114;925777;-78
2022/10/05 00:36:57;;;;;;;1.91;1.76;;;;;;;10.82;67.59;101168.42;464601;114;923051;-77
2022/10/05 00:38:01;;;;;;;1.84;1.74;;;;;;;10.83;67.58;101169.27;464655;114;922549;-77
2022/10/05 00:39:04;;;;;;;9.72;2.43;;;;;;;10.83;67.54;101172.84;464569;114;922803;-77
2022/10/05 00:40:27;;;;;;;2.14;1.92;;;;;;;10.84;67.54;101168.23;464659;114;930502;-77
2022/10/05 00:41:51;;;;;;;2.27;1.92;;;;;;;10.84;67.42;101173.69;463098;114;922499;-77
2022/10/05 00:43:48;;;;;;;2.19;1.89;;;;;;;10.93;67.32;101175.19;503208;105;946973;-75
2022/10/05 00:45:00;;;;;;;2.22;1.79;;;;;;;10.79;67.39;101170.73;492014;107;922605;-77
2022/10/05 00:46:25;;;;;;;3.79;2.19;;;;;;;10.77;67.47;101178.26;490727;108;922345;-76
2022/10/05 00:47:37;;;;;;;3.29;1.78;;;;;;;10.75;67.52;101178.45;487713;107;922594;-77
2022/10/05 00:49:06;;;;;;;3.07;2.28;;;;;;;10.75;67.51;101180.37;492907;107;922549;-77
2022/10/05 00:50:28;;;;;;;4.05;2.03;;;;;;;10.74;67.40;101184.13;489745;107;922428;-77
2022/10/05 00:51:33;;;;;;;2.29;2.02;;;;;;;10.72;67.54;101175.30;491054;107;923213;-77
2022/10/05 00:52:39;;;;;;;2.14;1.86;;;;;;;10.71;67.56;101179.91;484182;109;922619;-77
2022/10/05 00:54:05;;;;;;;3.58;1.92;;;;;;;10.71;67.63;101188.09;482739;108;922545;-78
2022/10/05 00:55:27;;;;;;;2.44;1.73;;;;;;;10.72;67.64;101180.75;489409;108;923531;-77
2022/10/05 00:56:48;;;;;;;2.17;1.94;;;;;;;10.72;67.75;101184.33;483426;109;922560;-77
2022/10/05 00:57:58;;;;;;;2.06;1.87;;;;;;;10.73;67.69;101187.90;491148;107;922944;-76
2022/10/05 00:59:07;;;;;;;3.21;2.05;;;;;;;10.72;67.73;101187.05;490115;107;922471;-78
2022/10/05 01:00:16;;;;;;;2.29;2.09;;;;;;;10.72;67.73;101183.48;490284;108;922880;-77
2022/10/05 01:01:39;;;;;;;1.93;1.75;;;;;;;10.71;67.66;101185.36;489785;108;922522;-78
2022/10/05 01:02:58;;;;;;;3.43;1.93;;;;;;;10.72;67.54;101188.94;490018;108;922524;-78
2022/10/05 01:04:04;;;;;;;4.00;1.99;;;;;;;10.70;67.45;101186.40;489696;108;922576;-78
2022/10/05 01:05:44;;;;;;;2.31;1.92;;;;;;;10.68;67.56;101188.50;483838;109;922449;-78
2022/10/05 01:06:53;;;;;;;2.27;1.97;;;;;;;10.68;67.60;101187.66;485585;108;922441;-78
2022/10/05 01:08:21;;;;;;;2.16;1.96;;;;;;;10.65;67.43;101190.77;484326;108;922977;-79
2022/10/05 01:09:43;;;;;;;2.48;1.71;;;;;;;10.63;67.45;101196.45;490300;108;922820;-78
2022/10/05 01:11:08;;;;;;;2.34;2.15;;;;;;;10.62;67.44;101193.91;485767;108;922643;-77
2022/10/05 01:12:15;;;;;;;2.29;2.06;;;;;;;10.60;67.48;101195.98;484457;109;923404;-77
2022/10/05 01:13:37;;;;;;;2.31;1.84;;;;;;;10.57;67.52;101197.24;473742;110;922577;-77
2022/10/05 01:14:43;;;;;;;2.42;1.78;;;;;;;10.57;67.61;101201.85;485719;107;923183;-78
2022/10/05 01:16:16;;;;;;;2.40;1.80;;;;;;;10.57;67.60;101202.70;487790;107;922556;-76
2022/10/05 01:17:28;;;;;;;2.16;1.96;;;;;;;10.55;67.64;101196.59;481350;110;922512;-78
2022/10/05 01:18:44;;;;;;;2.09;1.91;;;;;;;10.57;67.67;101196.41;481650;109;922492;-77
2022/10/05 01:20:16;;;;;;;2.21;2.03;;;;;;;10.56;67.65;101205.62;480298;110;922467;-76
2022/10/05 01:21:25;;;;;;;3.13;2.02;;;;;;;10.56;67.68;101206.46;480431;109;923033;-76
2022/10/05 01:22:41;;;;;;;1.78;1.64;;;;;;;10.56;67.56;101197.44;472760;112;922729;-77
2022/10/05 01:23:51;;;;;;;2.41;1.63;;;;;;;10.53;67.46;101197.84;476235;109;923025;-77
2022/10/05 01:25:26;;;;;;;2.32;2.12;;;;;;;10.53;67.53;101195.12;478604;109;922479;-77
2022/10/05 01:27:05;;;;;;;1.90;1.79;;;;;;;10.53;67.62;101197.84;481553;110;922475;-77
2022/10/05 01:28:15;;;;;;;2.26;1.85;;;;;;;10.52;67.66;101201.61;479349;109;922964;-78
2022/10/05 01:29:33;;;;;;;2.01;1.86;;;;;;;10.51;67.56;101202.64;477188;109;922491;-79
2022/10/05 01:30:41;;;;;;;2.61;1.91;;;;;;;10.49;67.54;101194.66;482563;109;922473;-78
2022/10/05 01:31:50;;;;;;;1.85;1.69;;;;;;;10.48;67.54;101192.13;474027;110;923009;-76
2022/10/05 01:32:56;;;;;;;2.24;1.91;;;;;;;10.47;67.49;101195.92;484730;107;923103;-78
2022/10/05 01:34:09;;;;;;;2.16;1.84;;;;;;;10.46;67.48;101192.34;489233;107;922910;-76
2022/10/05 01:35:50;;;;;;;3.18;2.07;;;;;;;10.47;67.42;101193.19;483955;109;922539;-76
2022/10/05 01:36:57;;;;;;;3.49;2.02;;;;;;;10.45;67.46;101196.11;483679;109;922736;-76
2022/10/05 01:38:20;;;;;;;2.48;1.93;;;;;;;10.42;67.39;101194.61;484453;107;922370;-77
2022/10/05 01:39:33;;;;;;;1.99;1.85;;;;;;;10.41;67.50;101195.67;484459;107;923221;-78
2022/10/05 01:40:55;;;;;;;3.23;1.53;;;;;;;10.41;67.53;101198.41;479751;107;923030;-77
2022/10/05 01:42:20;;;;;;;2.87;1.64;;;;;;;10.41;67.61;101192.10;490704;107;922598;-77
2022/10/05 01:43:47;;;;;;;1.66;1.50;;;;;;;10.42;67.70;101193.77;490726;108;922724;-76
2022/10/05 01:44:57;;;;;;;2.23;2.02;;;;;;;10.42;67.70;101188.31;485509;107;922844;-77
2022/10/05 01:46:20;;;;;;;2.12;1.59;;;;;;;10.40;67.54;101188.53;484372;109;923010;-79
2022/10/05 01:47:29;;;;;;;2.64;2.01;;;;;;;10.38;67.57;101182.42;488564;108;922882;-77
2022/10/05 01:48:36;;;;;;;2.39;2.19;;;;;;;10.38;67.64;101185.15;490535;108;922904;-77
2022/10/05 01:49:48;;;;;;;1.93;1.79;;;;;;;10.38;67.74;101185.15;484882;107;922565;-75
2022/10/05 01:50:58;;;;;;;1.99;1.82;;;;;;;10.39;67.96;101180.55;482151;107;922905;-77
2022/10/05 01:52:16;;;;;;;2.72;1.70;;;;;;;10.39;67.87;101181.39;453316;116;922789;-76
2022/10/05 01:53:22;;;;;;;3.29;1.74;;;;;;;10.40;67.89;101185.80;474053;109;922564;-76
2022/10/05 01:54:38;;;;;;;2.27;1.94;;;;;;;10.41;67.86;101195.67;476973;109;922822;-78
2022/10/05 01:55:53;;;;;;;2.89;1.85;;;;;;;10.41;67.84;101198.41;481620;110;922525;-77
2022/10/05 01:57:18;;;;;;;1.98;1.72;;;;;;;10.42;67.80;101199.21;481704;109;922574;-77
2022/10/05 01:58:27;;;;;;;2.29;1.58;;;;;;;10.42;67.83;101204.66;479801;109;922930;-77
2022/10/05 01:59:49;;;;;;;2.48;1.78;;;;;;;10.41;67.87;101198.41;477297;109;923069;-76
2022/10/05 02:00:59;;;;;;;1.98;1.70;;;;;;;10.40;67.78;101207.61;473954;109;922882;-76
2022/10/05 02:02:06;;;;;;;1.97;1.82;;;;;;;10.38;67.73;101206.95;476422;109;922644;-76
2022/10/05 02:03:19;;;;;;;2.21;1.99;;;;;;;10.37;67.75;101213.44;478970;109;922519;-78
2022/10/05 02:04:34;;;;;;;2.04;1.80;;;;;;;10.36;67.86;101203.61;474672;109;923056;-78
2022/10/05 02:06:01;;;;;;;3.23;1.93;;;;;;;10.36;67.90;101205.48;464806;110;923054;-76
2022/10/05 02:07:18;;;;;;;1.77;1.67;;;;;;;10.36;67.91;101200.88;481408;110;923049;-77
2022/10/05 02:08:33;;;;;;;2.39;1.91;;;;;;;10.36;67.98;101205.48;481837;109;922521;-78
2022/10/05 02:09:40;;;;;;;2.09;1.79;;;;;;;10.35;68.00;101207.37;481627;110;922560;-78
2022/10/05 02:11:02;;;;;;;2.67;1.65;;;;;;;10.35;67.99;101203.80;481721;109;922541;-76
2022/10/05 02:12:12;;;;;;;2.81;1.94;;;;;;;10.35;68.09;101204.64;461014;114;922887;-78
2022/10/05 02:13:19;;;;;;;1.72;1.62;;;;;;;10.35;68.03;101207.37;453725;116;922599;-77
2022/10/05 02:14:26;;;;;;;2.04;1.69;;;;;;;10.36;68.02;101200.03;474610;109;922954;-77
2022/10/05 02:15:32;;;;;;;2.34;1.82;;;;;;;10.36;68.00;101202.77;481663;109;922653;-79
2022/10/05 02:16:42;;;;;;;1.92;1.82;;;;;;;10.37;67.96;101199.81;481809;108;922976;-76
2022/10/05 02:17:52;;;;;;;5.29;2.09;;;;;;;10.37;67.92;101202.55;482076;109;922519;-75
2022/10/05 02:19:04;;;;;;;1.75;1.51;;;;;;;10.38;67.89;101204.23;481844;109;922524;-76
2022/10/05 02:20:11;;;;;;;2.08;1.69;;;;;;;10.39;67.94;101202.35;483043;108;922486;-77
2022/10/05 02:21:14;;;;;;;3.53;1.87;;;;;;;10.40;67.79;101207.61;481754;110;922785;-75
2022/10/05 02:22:29;;;;;;;2.06;1.83;;;;;;;10.40;67.68;101209.49;482005;109;922848;-76
2022/10/05 02:23:36;;;;;;;3.29;1.92;;;;;;;10.39;67.48;101207.80;482376;108;922761;-78
2022/10/05 02:24:51;;;;;;;2.04;1.50;;;;;;;10.39;67.47;101208.65;479783;110;922945;-77
2022/10/05 02:25:55;;;;;;;1.94;1.54;;;;;;;10.39;67.45;101211.38;475510;109;922875;-78
2022/10/05 02:26:59;;;;;;;1.88;1.63;;;;;;;10.40;67.53;101217.67;483678;108;922450;-78
2022/10/05 02:28:15;;;;;;;3.01;1.84;;;;;;;10.41;67.54;101219.36;481853;110;930274;-78
2022/10/05 02:29:22;;;;;;;2.13;1.93;;;;;;;10.41;67.44;101222.09;476134;111;922963;-76
2022/10/05 02:30:28;;;;;;;1.77;1.64;;;;;;;10.41;67.41;101225.66;474547;109;922651;-76
2022/10/05 02:31:53;;;;;;;2.41;1.77;;;;;;;10.42;67.42;101231.92;481816;110;922396;-76
2022/10/05 02:33:03;;;;;;;1.81;1.56;;;;;;;10.43;67.34;101239.07;473970;112;922524;-76
2022/10/05 02:34:29;;;;;;;2.82;1.77;;;;;;;10.42;67.40;101237.37;460201;113;923718;-77
2022/10/05 02:35:34;;;;;;;2.31;1.92;;;;;;;10.40;67.28;101229.42;465741;110;923203;-77
2022/10/05 02:36:37;;;;;;;1.84;1.74;;;;;;;10.39;67.44;101233.18;478524;110;922554;-77
2022/10/05 02:38:02;;;;;;;1.99;1.84;;;;;;;10.40;67.48;101242.20;476694;110;923100;-75
2022/10/05 02:39:21;;;;;;;2.08;1.84;;;;;;;10.40;67.45;101236.75;468471;112;922624;-76
2022/10/05 02:40:45;;;;;;;3.98;1.99;;;;;;;10.40;67.37;101237.59;474141;110;922616;-77
2022/10/05 02:41:52;;;;;;;1.93;1.62;;;;;;;10.39;67.48;101241.36;481461;110;922600;-77
2022/10/05 02:43:20;;;;;;;3.16;1.58;;;;;;;10.40;67.53;101234.03;476032;110;922444;-76
2022/10/05 02:44:30;;;;;;;1.83;1.68;;;;;;;10.39;67.53;101241.36;469705;112;923013;-77
2022/10/05 02:45:45;;;;;;;1.71;1.52;;;;;;;10.40;67.47;101244.94;473277;110;923446;-77
2022/10/05 02:46:52;;;;;;;3.87;1.66;;;;;;;10.38;67.42;101250.58;479224;110;922756;-76
2022/10/05 02:48:20;;;;;;;1.78;1.52;;;;;;;10.38;67.45;101250.58;481080;110;922751;-76
2022/10/05 02:49:47;;;;;;;3.19;2.06;;;;;;;10.38;67.39;101253.30;445020;118;922785;-76
2022/10/05 02:51:00;;;;;;;2.22;1.84;;;;;;;10.37;67.29;101254.34;479104;108;922621;-76
2022/10/05 02:52:12;;;;;;;2.45;1.78;;;;;;;10.35;67.16;101256.44;478785;108;922519;-76
2022/10/05 02:53:50;;;;;;;1.67;1.57;;;;;;;10.34;67.25;101262.08;486456;108;922840;-76
2022/10/05 02:55:14;;;;;;;2.01;1.89;;;;;;;10.32;67.17;101261.41;486413;108;922471;-77
2022/10/05 02:56:46;;;;;;;2.38;1.90;;;;;;;10.31;67.27;101257.03;485515;108;923393;-77
2022/10/05 02:58:09;;;;;;;2.36;2.12;;;;;;;10.30;67.35;101258.91;467287;111;922592;-76
2022/10/05 02:59:22;;;;;;;2.85;1.91;;;;;;;10.30;67.39;101263.52;486983;109;922538;-77
2022/10/05 03:00:27;;;;;;;2.04;1.83;;;;;;;10.29;67.43;101262.67;486590;108;922702;-76
2022/10/05 03:01:36;;;;;;;2.13;1.93;;;;;;;10.29;67.50;101272.73;466574;110;922992;-77
2022/10/05 03:02:58;;;;;;;2.72;1.69;;;;;;;10.30;67.53;101268.97;483931;108;923106;-77
2022/10/05 03:04:16;;;;;;;2.69;1.89;;;;;;;10.30;67.45;101267.09;482472;108;923122;-78
2022/10/05 03:05:32;;;;;;;2.24;1.87;;;;;;;10.28;67.41;101269.16;462216;114;922722;-77
2022/10/05 03:06:42;;;;;;;2.22;1.86;;;;;;;10.29;67.52;101273.58;445274;119;922777;-77
2022/10/05 03:08:01;;;;;;;2.74;1.92;;;;;;;10.27;67.43;101274.79;455200;114;922686;-77
2022/10/05 03:09:09;;;;;;;1.69;1.57;;;;;;;10.26;67.27;101281.28;484597;108;922503;-76
2022/10/05 03:10:16;;;;;;;3.31;1.99;;;;;;;10.23;67.30;101281.68;474360;111;923111;-77
2022/10/05 03:11:28;;;;;;;4.23;2.22;;;;;;;10.22;67.27;101285.44;478166;109;922524;-77
2022/10/05 03:12:51;;;;;;;3.48;2.50;;;;;;;10.20;67.18;101290.27;474604;110;922558;-77
2022/10/05 03:14:17;;;;;;;2.23;1.81;;;;;;;10.17;67.12;101290.63;477144;109;922621;-77
2022/10/05 03:15:36;;;;;;;2.29;2.06;;;;;;;10.13;67.11;101292.88;485867;108;922587;-77
2022/10/05 03:17:01;;;;;;;2.04;1.82;;;;;;;10.10;67.13;101301.43;465979;111;922551;-77
2022/10/05 03:18:27;;;;;;;2.02;1.79;;;;;;;10.07;67.20;101304.56;459772;113;923333;-78
2022/10/05 03:19:55;;;;;;;2.16;1.93;;;;;;;10.04;67.23;101307.66;455377;116;923151;-77
2022/10/05 03:21:22;;;;;;;2.99;2.12;;;;;;;10.01;67.50;101306.17;478250;109;923123;-77
2022/10/05 03:22:37;;;;;;;3.18;2.12;;;;;;;9.99;67.67;101301.94;476494;111;922504;-77
2022/10/05 03:24:06;;;;;;;2.53;1.81;;;;;;;9.98;67.71;101306.55;477671;109;922983;-77
2022/10/05 03:25:12;;;;;;;3.77;1.92;;;;;;;9.98;67.73;101311.14;481272;110;922920;-78
2022/10/05 03:26:22;;;;;;;1.90;1.76;;;;;;;9.97;67.84;101304.03;479495;109;922581;-77
2022/10/05 03:27:34;;;;;;;2.70;1.89;;;;;;;9.98;67.83;101313.88;483789;109;922545;-77
2022/10/05 03:28:47;;;;;;;2.19;1.96;;;;;;;9.98;67.93;101316.59;475968;109;922422;-77
2022/10/05 03:30:02;;;;;;;2.34;1.98;;;;;;;9.99;67.76;101312.84;476226;109;922567;-77
2022/10/05 03:31:13;;;;;;;2.19;1.98;;;;;;;9.98;67.71;101311.99;479538;108;922570;-77
2022/10/05 03:32:31;;;;;;;2.53;2.01;;;;;;;9.99;67.87;101312.84;481160;109;923084;-77
2022/10/05 03:33:48;;;;;;;2.76;1.73;;;;;;;10.00;67.90;101309.08;481239;108;922543;-77
2022/10/05 03:34:57;;;;;;;2.43;2.23;;;;;;;10.00;67.90;101325.43;490616;107;922496;-77
2022/10/05 03:36:16;;;;;;;2.47;1.94;;;;;;;10.00;67.93;101325.43;487058;107;922599;-79
2022/10/05 03:37:22;;;;;;;1.88;1.78;;;;;;;10.00;67.90;101331.73;490555;107;922537;-77
2022/10/05 03:38:35;;;;;;;1.68;1.57;;;;;;;10.00;67.91;101336.33;490285;108;922500;-78
2022/10/05 03:39:41;;;;;;;2.59;1.79;;;;;;;10.00;68.04;101339.05;490008;108;922461;-76
2022/10/05 03:40:54;;;;;;;2.18;1.93;;;;;;;10.00;68.01;101348.07;490304;107;922539;-77
2022/10/05 03:42:17;;;;;;;2.37;2.03;;;;;;;10.01;67.97;101340.75;485973;107;922532;-77
2022/10/05 03:43:44;;;;;;;1.94;1.75;;;;;;;10.02;67.98;101345.16;485023;109;922487;-76
2022/10/05 03:45:07;;;;;;;2.10;1.84;;;;;;;10.02;67.94;101353.34;486743;107;923182;-77
2022/10/05 03:46:17;;;;;;;2.32;2.13;;;;;;;10.01;68.00;101349.77;479178;107;922831;-78
2022/10/05 03:47:26;;;;;;;2.19;1.99;;;;;;;10.01;67.92;101351.64;492814;107;922673;-78
2022/10/05 03:48:45;;;;;;;2.65;1.73;;;;;;;9.99;67.90;101345.53;489573;107;922505;-79
2022/10/05 03:50:03;;;;;;;2.35;1.79;;;;;;;10.00;67.93;101352.67;483547;107;922981;-78
2022/10/05 03:51:15;;;;;;;3.04;2.22;;;;;;;10.00;67.93;101352.67;481172;110;922480;-77
2022/10/05 03:52:40;;;;;;;2.24;2.04;;;;;;;9.99;67.84;101361.88;463459;111;922569;-78
2022/10/05 03:53:47;;;;;;;3.22;2.15;;;;;;;10.00;67.89;101358.13;481392;107;923201;-76
2022/10/05 03:54:57;;;;;;;3.07;1.94;;;;;;;10.00;67.88;101366.30;484893;107;922512;-77
2022/10/05 03:56:15;;;;;;;2.06;1.94;;;;;;;10.01;67.76;101366.11;489487;107;922486;-77
2022/10/05 03:57:22;;;;;;;2.06;1.86;;;;;;;10.00;67.74;101367.14;485534;108;922521;-76
2022/10/05 03:58:29;;;;;;;2.53;2.24;;;;;;;10.00;67.85;101363.57;484483;107;922408;-77
2022/10/05 03:59:43;;;;;;;2.24;2.04;;;;;;;10.00;67.80;101363.57;490622;108;922990;-76
2022/10/05 04:00:49;;;;;;;2.28;1.95;;;;;;;10.01;67.83;101357.94;489921;107;922898;-78
2022/10/05 04:01:56;;;;;;;3.06;2.09;;;;;;;10.02;67.77;101358.78;487464;107;923055;-78
2022/10/05 04:03:02;;;;;;;1.92;1.67;;;;;;;10.01;67.83;101360.66;492812;107;922797;-77
2022/10/05 04:04:09;;;;;;;2.33;1.91;;;;;;;10.03;67.74;101353.13;487830;107;922612;-77
2022/10/05 04:05:19;;;;;;;2.06;1.90;;;;;;;10.05;67.73;101355.66;486100;107;922499;-78
2022/10/05 04:06:35;;;;;;;2.12;1.91;;;;;;;10.05;67.62;101358.39;489043;107;922983;-76
2022/10/05 04:07:56;;;;;;;2.26;1.88;;;;;;;10.06;67.61;101357.36;486128;107;923142;-76
2022/10/05 04:09:12;;;;;;;1.80;1.69;;;;;;;10.08;67.62;101351.72;489019;107;922461;-77
2022/10/05 04:10:22;;;;;;;2.27;2.07;;;;;;;10.08;67.59;101358.02;483182;107;922642;-77
2022/10/05 04:12:01;;;;;;;2.54;2.05;;;;;;;10.07;67.51;101358.20;482021;110;922641;-78
2022/10/05 04:13:17;;;;;;;2.60;1.89;;;;;;;10.07;67.46;101355.48;488317;107;923048;-79
2022/10/05 04:14:23;;;;;;;2.33;1.98;;;;;;;10.04;67.45;101351.24;490601;108;922701;-76
2022/10/05 04:15:33;;;;;;;2.80;1.71;;;;;;;10.02;67.44;101347.89;490631;107;922472;-76
2022/10/05 04:16:49;;;;;;;5.61;2.18;;;;;;;10.00;67.49;101358.97;480182;109;922473;-75
2022/10/05 04:17:55;;;;;;;2.08;1.97;;;;;;;10.01;67.48;101357.94;480259;110;930483;-76
2022/10/05 04:19:11;;;;;;;2.52;2.32;;;;;;;10.02;67.52;101356.06;481630;109;922433;-76
2022/10/05 04:20:24;;;;;;;2.37;2.17;;;;;;;10.02;67.55;101358.78;481636;110;922342;-77
2022/10/05 04:21:34;;;;;;;2.08;1.72;;;;;;;10.03;67.70;101353.13;481672;110;923047;-76
2022/10/05 04:22:41;;;;;;;2.73;1.88;;;;;;;10.05;67.62;101353.78;468573;112;922594;-75
2022/10/05 04:23:54;;;;;;;2.36;1.89;;;;;;;10.08;67.68;101358.02;472939;109;922600;-76
2022/10/05 04:25:06;;;;;;;1.89;1.75;;;;;;;10.11;67.71;101352.17;483220;109;922883;-76
2022/10/05 04:26:16;;;;;;;2.43;1.83;;;;;;;10.12;67.61;101350.30;480845;109;922534;-76
2022/10/05 04:27:23;;;;;;;2.13;1.76;;;;;;;10.12;67.54;101355.74;481581;110;922976;-77
2022/10/05 04:28:30;;;;;;;1.79;1.68;;;;;;;10.11;67.47;101354.89;476742;109;922557;-79
2022/10/05 04:29:44;;;;;;;2.33;2.09;;;;;;;10.12;67.46;101358.47;478186;110;922929;-74
2022/10/05 04:30:51;;;;;;;1.86;1.76;;;;;;;10.12;67.41;101358.47;480045;108;923682;-75
2022/10/05 04:32:17;;;;;;;2.52;2.21;;;;;;;10.11;67.44;101354.89;476945;109;922929;-76
2022/10/05 04:33:21;;;;;;;2.31;2.04;;;;;;;10.11;67.46;101349.45;477551;111;922550;-78
2022/10/05 04:34:51;;;;;;;2.76;2.08;;;;;;;10.12;67.57;101355.74;467034;111;922959;-76
2022/10/05 04:36:25;;;;;;;2.17;2.01;;;;;;;10.14;67.57;101354.53;462979;113;923691;-77
2022/10/05 04:37:44;;;;;;;2.22;2.04;;;;;;;10.14;67.67;101348.23;453306;116;922690;-77
2022/10/05 04:39:04;;;;;;;2.36;1.98;;;;;;;10.14;67.71;101349.08;455091;116;923203;-77
2022/10/05 04:40:38;;;;;;;2.20;2.01;;;;;;;10.24;67.69;101341.45;482439;110;946781;-77
2022/10/05 04:41:55;;;;;;;2.99;1.88;;;;;;;10.13;67.76;101331.03;473757;112;922573;-77
2022/10/05 04:43:04;;;;;;;2.34;2.07;;;;;;;10.13;67.77;101336.48;472065;112;922515;-76
2022/10/05 04:44:14;;;;;;;3.57;1.75;;;;;;;10.15;67.92;101336.27;473435;112;922559;-76
2022/10/05 04:45:29;;;;;;;2.11;1.96;;;;;;;10.16;67.87;101333.39;472622;112;922539;-76
2022/10/05 04:46:36;;;;;;;2.28;1.58;;;;;;;10.16;67.76;101336.11;473816;112;922503;-76
2022/10/05 04:47:57;;;;;;;2.11;1.95;;;;;;;10.17;67.73;101340.53;473034;112;922873;-77
2022/10/05 04:49:24;;;;;;;2.02;1.81;;;;;;;10.18;67.73;101336.77;463790;114;922913;-76
2022/10/05 04:50:30;;;;;;;2.37;2.17;;;;;;;10.18;67.76;101333.20;467690;112;923099;-76
2022/10/05 04:52:04;;;;;;;2.36;2.08;;;;;;;10.16;67.84;101338.84;471918;112;922915;-75
2022/10/05 04:53:17;;;;;;;2.12;1.92;;;;;;;10.17;67.99;101339.69;465388;114;923010;-76
2022/10/05 04:54:33;;;;;;;2.34;2.01;;;;;;;10.16;67.95;101344.29;465407;114;922595;-77
2022/10/05 04:55:46;;;;;;;2.60;2.03;;;;;;;10.15;67.93;101345.29;464354;114;922482;-77
2022/10/05 04:57:04;;;;;;;3.48;2.14;;;;;;;10.17;67.98;101345.14;464855;114;922634;-76
2022/10/05 04:58:35;;;;;;;2.13;1.96;;;;;;;10.18;68.06;101344.95;465371;114;922537;-76
2022/10/05 04:59:56;;;;;;;2.34;2.05;;;;;;;10.20;68.12;101342.05;465307;114;924249;-76
2022/10/05 05:01:06;;;;;;;2.34;2.05;;;;;;;10.22;68.15;101345.40;464847;114;923004;-77
2022/10/05 05:02:13;;;;;;;2.39;2.06;;;;;;;10.22;68.28;101346.25;464841;113;922759;-76
2022/10/05 05:03:41;;;;;;;3.48;2.49;;;;;;;10.24;68.44;101349.63;465285;114;930387;-78
2022/10/05 05:05:05;;;;;;;3.08;2.32;;;;;;;10.26;68.40;101349.41;447690;118;922805;-77
2022/10/05 05:06:16;;;;;;;2.21;1.79;;;;;;;10.27;68.44;101346.50;460633;114;923038;-75
2022/10/05 05:07:42;;;;;;;2.17;1.97;;;;;;;10.28;68.60;101347.34;465325;114;923199;-77
2022/10/05 05:09:07;;;;;;;2.47;2.21;;;;;;;10.28;68.58;101350.92;465185;114;922672;-76
2022/10/05 05:10:20;;;;;;;2.99;2.12;;;;;;;10.30;68.62;101346.13;464471;114;922712;-76
2022/10/05 05:11:29;;;;;;;2.57;2.06;;;;;;;10.32;68.76;101343.19;465321;114;922550;-75
2022/10/05 05:13:01;;;;;;;2.42;2.22;;;;;;;10.33;68.84;101348.45;464849;114;922501;-75
2022/10/05 05:14:27;;;;;;;3.36;2.02;;;;;;;10.36;68.88;101347.23;464298;114;922866;-77
2022/10/05 05:15:37;;;;;;;2.95;2.16;;;;;;;10.37;68.93;101344.30;465654;113;922503;-77
2022/10/05 05:16:43;;;;;;;4.00;1.93;;;;;;;10.40;69.04;101345.80;468216;113;922845;-78
2022/10/05 05:18:03;;;;;;;2.76;2.32;;;;;;;10.52;68.99;101348.84;477020;110;946865;-77
2022/10/05 05:19:19;;;;;;;2.33;1.97;;;;;;;10.43;69.10;101342.67;465366;114;923091;-78
2022/10/05 05:20:28;;;;;;;2.12;1.90;;;;;;;10.44;69.14;101347.09;465392;113;922529;-77
2022/10/05 05:21:54;;;;;;;5.28;2.33;;;;;;;10.47;69.11;101343.98;456898;115;922318;-77
2022/10/05 05:23:28;;;;;;;2.20;2.02;;;;;;;10.50;69.15;101342.73;459705;114;923280;-75
2022/10/05 05:24:35;;;;;;;2.39;2.18;;;;;;;10.53;69.09;101339.64;465164;114;922307;-76
2022/10/05 05:25:44;;;;;;;2.19;2.02;;;;;;;10.53;69.14;101343.17;465235;114;922603;-78
2022/10/05 05:26:54;;;;;;;3.19;2.33;;;;;;;10.55;69.14;101342.99;464815;114;922567;-78
2022/10/05 05:28:06;;;;;;;2.31;2.11;;;;;;;10.56;69.14;101347.41;464756;114;922568;-77
2022/10/05 05:29:25;;;;;;;2.48;2.28;;;;;;;10.58;69.18;101345.34;455759;116;930555;-77
2022/10/05 05:30:34;;;;;;;6.98;2.18;;;;;;;10.59;69.25;101349.73;447998;116;922597;-77
2022/10/05 05:31:44;;;;;;;2.28;2.08;;;;;;;10.61;69.16;101348.51;455198;116;922419;-78
2022/10/05 05:33:12;;;;;;;2.40;2.15;;;;;;;10.64;69.21;101353.55;457112;115;923030;-78
2022/10/05 05:34:31;;;;;;;2.08;1.88;;;;;;;10.68;69.19;101356.75;439663;119;923126;-77
2022/10/05 05:35:55;;;;;;;2.78;2.13;;;;;;;10.70;69.11;101343.75;442505;119;923308;-76
2022/10/05 05:37:18;;;;;;;2.46;2.23;;;;;;;10.70;69.04;101341.02;443362;115;923195;-77
2022/10/05 05:38:39;;;;;;;2.80;2.37;;;;;;;10.73;69.10;101351.55;449240;117;922964;-80
2022/10/05 05:39:49;;;;;;;2.84;2.54;;;;;;;10.74;69.12;101351.36;452405;116;923204;-77
2022/10/05 05:41:02;;;;;;;2.71;2.10;;;;;;;10.77;69.18;101359.14;457309;116;922905;-77
2022/10/05 05:42:16;;;;;;;2.09;1.97;;;;;;;10.79;69.25;101353.49;443069;119;923351;-77
2022/10/05 05:43:25;;;;;;;1.92;1.76;;;;;;;10.82;69.21;101350.36;455970;115;922530;-78